Time;durP1;ratioP1;P1;durP2;ratioP2;P2;SDS_P1;SDS_P2;PMS_P1;PMS_P2;Temp;Humidity;BMP_temperature;BMP_pressure;BME280_temperature;BME280_humidity;BME280_pressure;Samples;Min_cycle;Max_cycle;Signal;HPM_P1;HPM_P2
2023/06/20 00:01:54;;;;;;;4.47;2.22;;;;;;;19.81;100.00;100428.41;5159556;28;20048;-73
2023/06/20 00:04:24;;;;;;;2.78;2.08;;;;;;;19.99;100.00;100429.66;5179274;28;20033;-73
2023/06/20 00:06:55;;;;;;;3.15;2.35;;;;;;;19.78;100.00;100431.31;5176197;28;20028;-71
2023/06/20 00:09:25;;;;;;;3.58;2.60;;;;;;;19.96;100.00;100440.53;5179266;28;20160;-72
2023/06/20 00:11:55;;;;;;;3.47;2.67;;;;;;;19.98;100.00;100443.06;5179537;28;20033;-72
2023/06/20 00:14:27;;;;;;;3.63;2.55;;;;;;;19.76;100.00;100448.31;5173959;28;20104;-73
2023/06/20 00:16:59;;;;;;;6.43;2.65;;;;;;;19.51;100.00;100446.66;5179429;28;20365;-72
2023/06/20 00:19:31;;;;;;;3.78;2.80;;;;;;;19.51;100.00;100437.84;5179563;28;20045;-72
2023/06/20 00:22:05;;;;;;;6.32;2.70;;;;;;;19.62;100.00;100438.72;5179569;28;20071;-73
2023/06/20 00:24:35;;;;;;;4.90;2.78;;;;;;;19.77;100.00;100436.75;5177648;28;20025;-72
2023/06/20 00:27:05;;;;;;;6.57;2.65;;;;;;;19.69;100.00;100434.66;5179411;28;20091;-73
2023/06/20 00:29:36;;;;;;;4.25;2.70;;;;;;;19.78;100.00;100444.56;5177972;28;20083;-73
2023/06/20 00:32:06;;;;;;;3.67;2.38;;;;;;;19.52;100.00;100443.03;5179794;28;20322;-73
2023/06/20 00:34:37;;;;;;;3.83;2.70;;;;;;;19.59;100.00;100444.25;5160842;28;20120;-72
2023/06/20 00:37:07;;;;;;;3.80;2.63;;;;;;;19.42;100.00;100446.50;5174196;28;20068;-73
2023/06/20 00:39:37;;;;;;;4.80;2.85;;;;;;;19.39;100.00;100447.53;5168476;28;20029;-73
2023/06/20 00:42:18;;;;;;;4.22;2.90;;;;;;;19.23;100.00;100449.63;5180285;28;20037;-73
2023/06/20 00:44:48;;;;;;;7.15;3.00;;;;;;;19.38;100.00;100445.84;5171349;28;20458;-71
2023/06/20 00:47:19;;;;;;;3.97;2.63;;;;;;;19.47;100.00;100433.72;5186347;23;20033;-70
2023/06/20 00:49:51;;;;;;;3.88;2.58;;;;;;;19.49;100.00;100443.28;5181802;28;20395;-73
2023/06/20 00:52:23;;;;;;;3.25;2.50;;;;;;;19.62;100.00;100433.41;5167855;28;20044;-73
2023/06/20 00:54:53;;;;;;;6.70;2.50;;;;;;;19.39;100.00;100439.59;5179362;28;20030;-72
2023/06/20 00:57:24;;;;;;;2.67;2.00;;;;;;;19.74;100.00;100437.81;5161999;28;20033;-72
2023/06/20 00:59:54;;;;;;;3.92;2.50;;;;;;;19.81;100.00;100441.69;5178757;28;20289;-71
2023/06/20 01:02:24;;;;;;;10.95;2.55;;;;;;;19.68;100.00;100440.94;5176130;28;20076;-72
2023/06/20 01:04:55;;;;;;;3.90;1.85;;;;;;;19.69;100.00;100445.28;5160567;28;20050;-71
2023/06/20 01:07:49;;;;;;;4.20;2.60;;;;;;;19.79;100.00;100443.59;5161568;28;20460;-71
2023/06/20 01:10:36;;;;;;;5.35;2.13;;;;;;;19.66;100.00;100437.56;5156013;28;20049;-72
2023/06/20 01:13:21;;;;;;;5.65;2.83;;;;;;;19.51;100.00;100441.34;5158143;28;20022;-72
2023/06/20 01:16:10;;;;;;;2.65;2.15;;;;;;;19.27;100.00;100442.31;5165304;28;20049;-72
2023/06/20 01:18:57;;;;;;;4.55;2.47;;;;;;;19.28;100.00;100444.00;5164048;28;20026;-72
2023/06/20 01:21:37;;;;;;;4.07;2.30;;;;;;;19.25;100.00;100447.72;5177152;28;20033;-71
2023/06/20 01:24:13;;;;;;;4.70;2.50;;;;;;;18.86;100.00;100453.22;5162304;28;20573;-72
2023/06/20 01:27:01;;;;;;;5.85;2.85;;;;;;;18.96;100.00;100443.63;5162618;28;20061;-72
2023/06/20 01:29:47;;;;;;;3.55;2.53;;;;;;;19.00;100.00;100445.13;5161894;28;20022;-72
2023/06/20 01:32:22;;;;;;;5.43;2.80;;;;;;;18.81;100.00;100449.19;5163516;28;20061;-72
2023/06/20 01:35:00;;;;;;;5.55;2.53;;;;;;;18.69;100.00;100442.09;5181141;28;20072;-71
2023/06/20 01:37:35;;;;;;;7.68;2.78;;;;;;;18.53;100.00;100448.59;5178001;28;20036;-72
2023/06/20 01:40:09;;;;;;;4.17;2.70;;;;;;;18.65;100.00;100442.47;5181299;28;20084;-72
2023/06/20 01:42:41;;;;;;;4.78;2.30;;;;;;;18.86;100.00;100447.06;5159950;28;20033;-72
2023/06/20 01:45:13;;;;;;;4.00;2.60;;;;;;;18.80;100.00;100447.50;5181862;28;20057;-72
2023/06/20 01:47:46;;;;;;;4.30;2.70;;;;;;;18.88;100.00;100439.84;5181542;28;20354;-72
2023/06/20 01:50:18;;;;;;;4.90;2.67;;;;;;;19.09;100.00;100435.66;5179114;28;20143;-71
2023/06/20 01:52:49;;;;;;;4.13;2.70;;;;;;;19.12;100.00;100433.63;5167792;28;20060;-70
2023/06/20 01:55:21;;;;;;;4.95;2.70;;;;;;;19.09;100.00;100440.97;5176786;28;20555;-72
2023/06/20 01:57:54;;;;;;;6.53;2.90;;;;;;;18.86;100.00;100439.97;5165013;28;20105;-72
2023/06/20 02:00:26;;;;;;;7.13;2.75;;;;;;;18.78;100.00;100430.88;5177970;28;20057;-72
2023/06/20 02:02:58;;;;;;;4.32;2.60;;;;;;;18.88;100.00;100429.25;5163357;28;20028;-72
2023/06/20 02:05:30;;;;;;;7.32;2.90;;;;;;;18.89;100.00;100426.50;5178197;28;20500;-69
2023/06/20 02:08:02;;;;;;;4.43;2.53;;;;;;;18.93;100.00;100427.97;5151092;28;20128;-72
2023/06/20 02:10:34;;;;;;;6.80;2.40;;;;;;;18.88;100.00;100427.47;5166792;28;20134;-71
2023/06/20 02:13:06;;;;;;;4.22;2.40;;;;;;;18.93;100.00;100427.13;5181483;28;20116;-71
2023/06/20 02:15:37;;;;;;;10.43;2.80;;;;;;;18.92;100.00;100430.75;5183037;28;20439;-72
2023/06/20 02:18:08;;;;;;;7.00;2.58;;;;;;;18.90;100.00;100428.19;5179623;28;20026;-72
2023/06/20 02:20:38;;;;;;;5.22;2.83;;;;;;;18.65;100.00;100440.63;5185316;28;20053;-72
2023/06/20 02:23:10;;;;;;;5.47;2.45;;;;;;;18.69;100.00;100433.34;5162658;28;20026;-71
2023/06/20 02:25:43;;;;;;;4.82;2.33;;;;;;;18.79;100.00;100435.22;5183498;28;20503;-72
2023/06/20 02:28:15;;;;;;;6.07;2.90;;;;;;;18.73;100.00;100434.81;5181811;28;20034;-72
2023/06/20 02:30:48;;;;;;;3.78;2.25;;;;;;;18.75;100.00;100439.88;5180142;28;20112;-71
2023/06/20 02:33:21;;;;;;;4.93;2.70;;;;;;;18.60;100.00;100439.25;5185638;28;20023;-72
2023/06/20 02:35:52;;;;;;;5.13;2.58;;;;;;;18.39;100.00;100441.63;5179018;28;20113;-72
2023/06/20 02:38:22;;;;;;;5.18;3.00;;;;;;;18.55;100.00;100431.63;5147370;28;20089;-72
2023/06/20 02:40:53;;;;;;;5.18;2.92;;;;;;;18.40;100.00;100437.16;5182407;28;20061;-71
2023/06/20 02:43:23;;;;;;;3.25;2.58;;;;;;;18.41;100.00;100442.38;5169587;28;20069;-71
2023/06/20 02:46:18;;;;;;;5.88;2.70;;;;;;;18.63;100.00;100436.41;5185542;28;20484;-72
2023/06/20 02:49:25;;;;;;;4.07;2.92;;;;;;;18.46;100.00;100428.78;5183993;28;20053;-70
2023/06/20 02:52:04;;;;;;;;;;;;;;;18.65;100.00;100429.22;5183450;28;20448;-72
2023/06/20 02:54:38;;;;;;;5.75;2.92;;;;;;;18.79;100.00;100422.81;5166279;28;19917;-72
2023/06/20 02:57:12;;;;;;;6.80;3.00;;;;;;;18.76;100.00;100417.72;5178062;28;20030;-72
2023/06/20 02:59:46;;;;;;;6.82;3.13;;;;;;;18.70;100.00;100419.13;5166072;28;20554;-71
2023/06/20 03:02:18;;;;;;;4.60;2.88;;;;;;;18.82;100.00;100413.81;5178466;28;20125;-72
2023/06/20 03:04:56;;;;;;;4.28;2.97;;;;;;;18.90;100.00;100411.47;5168661;28;20032;-71
2023/06/20 03:07:33;;;;;;;3.80;2.97;;;;;;;18.88;100.00;100414.22;5178113;28;20397;-72
2023/06/20 03:10:06;;;;;;;5.38;3.42;;;;;;;18.91;100.00;100413.16;5177324;28;20030;-72
2023/06/20 03:12:37;;;;;;;5.75;3.08;;;;;;;19.06;100.00;100418.19;5164241;28;20030;-72
2023/06/20 03:15:08;;;;;;;3.60;2.78;;;;;;;19.13;100.00;100421.22;5171141;28;20072;-72
2023/06/20 03:17:38;;;;;;;5.15;2.85;;;;;;;18.94;100.00;100426.16;5183452;28;20511;-70
2023/06/20 03:20:09;;;;;;;4.85;2.90;;;;;;;19.09;100.00;100433.84;5172678;28;20833;-71
2023/06/20 03:22:40;;;;;;;4.25;2.85;;;;;;;18.95;100.00;100425.22;5182243;28;20038;-72
2023/06/20 03:25:10;;;;;;;6.22;2.90;;;;;;;19.05;100.00;100423.56;5165034;28;20126;-71
2023/06/20 03:27:40;;;;;;;5.28;3.25;;;;;;;19.10;100.00;100427.59;5164758;28;20030;-72
2023/06/20 03:30:11;;;;;;;5.75;3.17;;;;;;;19.32;100.00;100425.13;5180598;28;20506;-71
2023/06/20 03:32:42;;;;;;;4.10;2.70;;;;;;;19.33;100.00;100436.53;5182696;28;20439;-72
2023/06/20 03:35:12;;;;;;;6.05;3.25;;;;;;;19.39;100.00;100430.78;5181986;28;20018;-72
2023/06/20 03:37:43;;;;;;;5.25;3.13;;;;;;;19.52;100.00;100442.19;5183984;28;20181;-72
2023/06/20 03:40:13;;;;;;;6.72;3.20;;;;;;;19.44;100.00;100434.78;5182115;28;20022;-71
2023/06/20 03:42:44;;;;;;;9.30;3.85;;;;;;;19.74;100.00;100437.81;5148899;28;20022;-72
2023/06/20 03:45:14;;;;;;;6.30;3.88;;;;;;;19.83;100.00;100431.84;5176392;28;20026;-72
2023/06/20 03:47:44;;;;;;;6.10;3.85;;;;;;;19.85;100.00;100437.88;5181319;28;20079;-72
2023/06/20 03:50:15;;;;;;;5.75;3.80;;;;;;;19.99;100.00;100437.63;5164453;28;20026;-72
2023/06/20 03:52:45;;;;;;;5.60;3.85;;;;;;;20.11;100.00;100444.69;5182206;28;20059;-73
2023/06/20 03:55:15;;;;;;;5.03;3.75;;;;;;;20.15;100.00;100446.16;5161649;28;20510;-72
2023/06/20 03:57:46;;;;;;;7.90;4.15;;;;;;;20.37;100.00;100448.00;5181770;28;20469;-72
2023/06/20 04:00:16;;;;;;;6.35;4.18;;;;;;;20.49;100.00;100442.56;5178954;28;20057;-70
2023/06/20 04:02:46;;;;;;;5.38;3.75;;;;;;;20.54;100.00;100456.34;5180869;28;20513;-72
2023/06/20 04:05:17;;;;;;;5.60;3.70;;;;;;;20.59;100.00;100459.50;5167212;28;20089;-72
2023/06/20 04:07:47;;;;;;;5.93;4.25;;;;;;;20.70;100.00;100449.72;5180767;28;20029;-72
2023/06/20 04:10:17;;;;;;;5.95;4.00;;;;;;;20.84;100.00;100448.63;5179136;28;20083;-72
2023/06/20 04:12:48;;;;;;;7.50;3.72;;;;;;;20.86;100.00;100446.72;5184721;28;20022;-71
2023/06/20 04:15:18;;;;;;;7.43;4.45;;;;;;;21.01;99.85;100461.41;5177552;28;20369;-72
2023/06/20 04:17:49;;;;;;;7.55;4.13;;;;;;;21.04;99.09;100469.19;5163675;28;20689;-72
2023/06/20 04:20:19;;;;;;;7.80;4.32;;;;;;;21.14;97.52;100480.75;5163765;28;20026;-72
2023/06/20 04:22:49;;;;;;;5.72;3.97;;;;;;;21.12;98.94;100469.38;5179734;28;20091;-71
2023/06/20 04:25:19;;;;;;;7.05;4.28;;;;;;;21.31;97.46;100466.94;5162478;28;20406;-72
2023/06/20 04:27:53;;;;;;;7.00;4.57;;;;;;;21.31;97.66;100470.44;5180732;28;20061;-72
2023/06/20 04:30:24;;;;;;;6.05;4.00;;;;;;;21.14;98.73;100457.69;5164830;28;20026;-71
2023/06/20 04:32:54;;;;;;;5.80;4.15;;;;;;;21.42;99.00;100461.59;5182752;28;20028;-72
2023/06/20 04:35:24;;;;;;;6.88;4.10;;;;;;;21.49;98.09;100458.31;5163980;28;20186;-72
2023/06/20 04:37:56;;;;;;;5.88;4.30;;;;;;;21.59;96.90;100447.75;5180546;28;20551;-72
2023/06/20 04:40:27;;;;;;;9.23;4.88;;;;;;;21.84;97.03;100437.63;5163645;28;20042;-72
2023/06/20 04:42:58;;;;;;;6.95;4.63;;;;;;;21.99;95.85;100448.78;5163715;28;20205;-72
2023/06/20 04:45:29;;;;;;;5.85;4.07;;;;;;;22.03;96.17;100443.09;5180666;28;20038;-72
2023/06/20 04:48:00;;;;;;;8.40;4.85;;;;;;;22.08;97.29;100448.03;5179734;28;20041;-72
2023/06/20 04:50:30;;;;;;;9.65;4.43;;;;;;;22.03;97.85;100447.56;5180584;28;20516;-72
2023/06/20 04:53:01;;;;;;;6.63;4.35;;;;;;;22.12;98.55;100442.28;5181210;28;20034;-72
2023/06/20 04:55:31;;;;;;;7.22;4.80;;;;;;;22.09;98.86;100439.06;5181440;28;20030;-72
2023/06/20 04:58:04;;;;;;;7.80;4.63;;;;;;;22.36;98.55;100439.34;5160428;28;20057;-72
2023/06/20 05:00:37;;;;;;;8.45;4.68;;;;;;;22.22;99.60;100453.88;5163328;28;20023;-72
2023/06/20 05:03:07;;;;;;;7.00;4.50;;;;;;;22.16;99.50;100453.53;5178224;28;20385;-72
2023/06/20 05:05:39;;;;;;;6.72;4.85;;;;;;;22.19;98.25;100453.28;5179328;28;20088;-71
2023/06/20 05:08:10;;;;;;;8.20;5.78;;;;;;;21.97;100.00;100458.72;5162088;28;20517;-72
2023/06/20 05:10:40;;;;;;;8.82;5.07;;;;;;;22.00;100.00;100461.13;5162615;28;20072;-72
2023/06/20 05:13:10;;;;;;;9.27;5.40;;;;;;;21.71;100.00;100462.75;5164600;28;20030;-71
2023/06/20 05:15:41;;;;;;;7.27;5.43;;;;;;;21.75;100.00;100458.84;5162509;28;20694;-71
2023/06/20 05:18:11;;;;;;;8.02;6.00;;;;;;;21.59;100.00;100463.72;5161544;28;20339;-72
2023/06/20 05:20:41;;;;;;;8.83;5.93;;;;;;;21.33;100.00;100467.66;5165180;28;20467;-73
2023/06/20 05:23:11;;;;;;;7.30;6.03;;;;;;;21.32;100.00;100468.63;5162901;28;20273;-72
2023/06/20 05:25:42;;;;;;;7.47;5.67;;;;;;;21.38;100.00;100465.47;5166444;28;20038;-71
2023/06/20 05:28:13;;;;;;;8.67;6.13;;;;;;;21.36;100.00;100473.56;5166567;28;20716;-72
2023/06/20 05:30:43;;;;;;;9.80;5.50;;;;;;;21.48;100.00;100477.91;5166505;28;20310;-72
2023/06/20 05:33:13;;;;;;;8.95;6.18;;;;;;;21.35;100.00;100479.88;5163500;28;20031;-72
2023/06/20 05:35:46;;;;;;;8.27;5.70;;;;;;;21.40;100.00;100484.81;5166498;28;20145;-72
2023/06/20 05:38:16;;;;;;;8.38;5.43;;;;;;;21.42;100.00;100485.53;5162439;28;20845;-71
2023/06/20 05:40:46;;;;;;;8.90;6.72;;;;;;;21.37;100.00;100491.22;5165109;28;20026;-73
2023/06/20 05:43:17;;;;;;;8.83;5.73;;;;;;;21.37;100.00;100493.88;5161818;28;20122;-72
2023/06/20 05:45:47;;;;;;;8.40;6.10;;;;;;;21.44;100.00;100496.88;5167816;28;20296;-72
2023/06/20 05:48:17;;;;;;;7.20;5.33;;;;;;;21.47;100.00;100505.47;5178044;28;20380;-72
2023/06/20 05:50:50;;;;;;;10.90;5.90;;;;;;;21.33;100.00;100502.22;5166554;28;20619;-70
2023/06/20 05:53:22;;;;;;;9.52;6.15;;;;;;;21.37;100.00;100503.69;5159683;28;20492;-72
2023/06/20 05:55:52;;;;;;;7.82;5.38;;;;;;;21.42;100.00;100504.97;5166875;28;20022;-72
2023/06/20 05:58:22;;;;;;;7.60;5.38;;;;;;;21.42;100.00;100512.13;5163611;28;20034;-72
2023/06/20 06:00:53;;;;;;;9.10;5.70;;;;;;;21.52;100.00;100523.69;5161036;28;20046;-72
2023/06/20 06:03:23;;;;;;;7.72;5.47;;;;;;;21.43;100.00;100540.41;5163082;28;20313;-72
2023/06/20 06:05:54;;;;;;;7.47;5.17;;;;;;;21.32;100.00;100556.38;5164133;28;20104;-73
2023/06/20 06:08:25;;;;;;;7.35;5.15;;;;;;;21.47;100.00;100571.09;5161851;28;20285;-72
2023/06/20 06:10:55;;;;;;;7.80;4.90;;;;;;;21.32;100.00;100585.63;5165058;28;20476;-72
2023/06/20 06:13:27;;;;;;;6.80;5.28;;;;;;;21.21;100.00;100583.00;5163177;28;20117;-73
2023/06/20 06:15:57;;;;;;;8.65;5.63;;;;;;;21.18;100.00;100586.72;5160913;28;20091;-72
2023/06/20 06:18:30;;;;;;;7.97;5.85;;;;;;;21.05;100.00;100585.16;5161795;28;20385;-72
2023/06/20 06:21:00;;;;;;;13.25;6.88;;;;;;;20.71;100.00;100580.75;5163857;28;20599;-72
2023/06/20 06:23:31;;;;;;;13.15;7.88;;;;;;;20.62;100.00;100586.75;5162851;28;20031;-72
2023/06/20 06:26:02;;;;;;;11.80;7.40;;;;;;;20.43;100.00;100582.97;5162754;28;20026;-72
2023/06/20 06:28:32;;;;;;;11.75;7.47;;;;;;;20.27;100.00;100585.09;5162932;28;20109;-71
2023/06/20 06:31:13;;;;;;;12.10;7.67;;;;;;;20.37;100.00;100584.28;5165280;28;20110;-71
2023/06/20 06:33:43;;;;;;;13.63;7.95;;;;;;;20.32;100.00;100590.88;5180438;28;20284;-71
2023/06/20 06:36:16;;;;;;;13.48;8.05;;;;;;;20.33;100.00;100581.97;5162431;28;20053;-71
2023/06/20 06:38:49;;;;;;;16.65;8.75;;;;;;;20.29;100.00;100591.94;5166719;28;20021;-71
2023/06/20 06:41:19;;;;;;;17.13;8.43;;;;;;;20.26;100.00;100578.91;5170932;28;20706;-72
2023/06/20 06:43:49;;;;;;;12.00;8.13;;;;;;;20.35;100.00;100572.94;5169641;28;20328;-70
2023/06/20 06:48:54;;;;;;;13.95;9.52;;;;;;;20.37;100.00;100575.44;5182750;28;20103;-75
2023/06/20 06:51:24;;;;;;;15.50;9.37;;;;;;;20.38;100.00;100575.34;5185293;28;20507;-73
2023/06/20 06:53:54;;;;;;;13.07;9.40;;;;;;;20.24;100.00;100579.97;5185998;28;20268;-74
2023/06/20 06:56:25;;;;;;;13.77;9.13;;;;;;;20.33;100.00;100579.31;5185486;28;20145;-74
2023/06/20 06:58:57;;;;;;;13.15;8.98;;;;;;;20.44;100.00;100577.53;5186716;28;20036;-74
2023/06/20 07:01:28;;;;;;;12.18;8.88;;;;;;;20.46;100.00;100572.94;5186206;28;20672;-74
2023/06/20 07:03:59;;;;;;;14.85;9.77;;;;;;;20.32;100.00;100567.00;5169771;28;20036;-74
2023/06/20 07:06:30;;;;;;;12.70;9.13;;;;;;;20.27;100.00;100564.66;5182763;28;20392;-75
2023/06/20 07:09:00;;;;;;;15.90;9.60;;;;;;;20.28;100.00;100566.38;5190134;28;20366;-74
2023/06/20 07:11:31;;;;;;;13.57;9.65;;;;;;;20.28;100.00;100560.22;5170645;28;20620;-74
2023/06/20 07:14:01;;;;;;;15.88;10.25;;;;;;;20.33;100.00;100564.19;5184701;28;20056;-73
2023/06/20 07:16:32;;;;;;;13.90;10.07;;;;;;;20.38;100.00;100554.09;5187299;28;20040;-76
2023/06/20 07:19:02;;;;;;;15.43;9.77;;;;;;;20.34;100.00;100554.44;5186756;28;20037;-74
2023/06/20 07:21:32;;;;;;;14.10;10.35;;;;;;;20.37;100.00;100548.91;5187043;28;20038;-74
2023/06/20 07:24:03;;;;;;;13.55;9.35;;;;;;;20.23;100.00;100547.28;5185776;28;20053;-75
2023/06/20 07:26:33;;;;;;;14.90;10.43;;;;;;;20.36;100.00;100539.25;5187482;28;20443;-74
2023/06/20 07:29:03;;;;;;;17.65;10.30;;;;;;;20.38;100.00;100534.66;5169416;28;20068;-74
2023/06/20 07:31:34;;;;;;;13.67;9.50;;;;;;;20.46;100.00;100538.41;5185063;28;20412;-74
2023/06/20 07:34:04;;;;;;;15.45;9.88;;;;;;;20.51;100.00;100535.41;5185827;28;20307;-74
2023/06/20 07:36:34;;;;;;;15.37;9.43;;;;;;;20.57;100.00;100535.78;5187913;28;20025;-74
2023/06/20 07:39:06;;;;;;;15.25;10.13;;;;;;;20.71;100.00;100532.91;5187287;28;20681;-74
2023/06/20 07:41:36;;;;;;;14.23;10.10;;;;;;;20.68;100.00;100535.78;5187386;28;20076;-74
2023/06/20 07:44:08;;;;;;;13.20;9.80;;;;;;;20.80;100.00;100540.16;5186272;28;20097;-74
2023/06/20 07:46:39;;;;;;;15.25;9.43;;;;;;;20.72;100.00;100526.63;5183970;28;20631;-74
2023/06/20 07:49:09;;;;;;;13.57;9.93;;;;;;;20.78;100.00;100524.34;5168199;28;20022;-75
2023/06/20 07:51:40;;;;;;;15.53;9.80;;;;;;;20.69;100.00;100534.84;5188459;28;20084;-75
2023/06/20 07:54:10;;;;;;;14.88;9.75;;;;;;;20.79;100.00;100514.56;5183875;28;20277;-74
2023/06/20 07:56:41;;;;;;;16.13;10.30;;;;;;;20.75;100.00;100523.75;5184610;28;20057;-73
2023/06/20 07:59:11;;;;;;;16.85;10.30;;;;;;;20.95;100.00;100520.38;5184633;28;20531;-74
2023/06/20 08:01:42;;;;;;;14.10;10.73;;;;;;;21.13;100.00;100524.25;5186631;28;20491;-74
2023/06/20 08:04:12;;;;;;;13.63;9.45;;;;;;;21.01;100.00;100525.22;5185532;28;20028;-74
2023/06/20 08:06:43;;;;;;;11.73;9.63;;;;;;;21.26;100.00;100514.31;5187486;28;20028;-75
2023/06/20 08:09:13;;;;;;;14.88;9.40;;;;;;;21.40;100.00;100512.25;5185108;28;20284;-73
2023/06/20 08:11:43;;;;;;;13.18;9.80;;;;;;;21.43;100.00;100506.66;5187569;28;20041;-74
2023/06/20 08:14:13;;;;;;;13.17;8.93;;;;;;;21.53;100.00;100501.44;5181789;28;20530;-73
2023/06/20 08:16:44;;;;;;;12.57;9.35;;;;;;;22.07;100.00;100486.28;5188500;28;20276;-73
2023/06/20 08:19:14;;;;;;;12.23;8.50;;;;;;;22.15;100.00;100483.81;5167132;28;20013;-74
2023/06/20 08:21:44;;;;;;;11.55;8.18;;;;;;;22.07;100.00;100484.44;5185626;28;20278;-74
2023/06/20 08:24:15;;;;;;;11.13;8.07;;;;;;;22.21;100.00;100476.16;5181166;28;20125;-75
2023/06/20 08:26:45;;;;;;;12.98;8.43;;;;;;;22.51;100.00;100475.38;5186921;28;20283;-74
2023/06/20 08:29:16;;;;;;;10.57;7.47;;;;;;;22.88;100.00;100467.53;5183968;28;20026;-75
2023/06/20 08:31:46;;;;;;;9.53;6.87;;;;;;;23.08;100.00;100469.31;5188399;28;20571;-74
2023/06/20 08:34:17;;;;;;;9.95;7.60;;;;;;;23.63;100.00;100463.41;5188074;28;20272;-74
2023/06/20 08:36:47;;;;;;;11.50;7.53;;;;;;;23.90;100.00;100462.72;5195347;28;20079;-73
2023/06/20 08:39:18;;;;;;;10.52;7.07;;;;;;;23.89;100.00;100455.72;5194894;28;20256;-74
2023/06/20 08:41:50;;;;;;;10.27;6.93;;;;;;;24.89;100.00;100448.72;5194640;28;20032;-72
2023/06/20 08:44:20;;;;;;;7.82;5.20;;;;;;;25.27;95.32;100449.38;5187175;28;20031;-75
2023/06/20 08:46:56;;;;;;;7.35;4.90;;;;;;;25.35;97.92;100448.63;5194607;28;20017;-74
2023/06/20 08:49:27;;;;;;;7.03;4.70;;;;;;;25.73;93.29;100448.34;5194394;28;20022;-74
2023/06/20 08:52:00;;;;;;;6.93;4.65;;;;;;;25.56;94.33;100454.53;5193613;28;20034;-74
2023/06/20 08:54:36;;;;;;;7.47;5.30;;;;;;;24.86;96.51;100455.22;5175573;28;20038;-74
2023/06/20 08:57:06;;;;;;;10.35;6.18;;;;;;;24.58;100.00;100455.31;5193945;28;20391;-73
2023/06/20 08:59:37;;;;;;;10.13;7.10;;;;;;;24.61;100.00;100449.69;5172940;28;20031;-74
2023/06/20 09:02:08;;;;;;;9.93;6.67;;;;;;;24.15;100.00;100452.31;5190731;28;20025;-75
2023/06/20 09:04:38;;;;;;;10.65;7.18;;;;;;;23.90;100.00;100446.72;5194880;28;20359;-75
2023/06/20 09:07:18;;;;;;;10.35;7.18;;;;;;;24.30;100.00;100458.88;5189431;28;20558;-74
2023/06/20 09:09:49;;;;;;;9.57;7.03;;;;;;;24.65;100.00;100459.09;5191558;28;20427;-73
2023/06/20 09:12:20;;;;;;;10.57;7.22;;;;;;;24.61;100.00;100463.06;5195494;28;20083;-74
2023/06/20 09:14:51;;;;;;;10.60;7.38;;;;;;;25.59;100.00;100454.22;5189433;28;20439;-73
2023/06/20 09:17:22;;;;;;;10.45;6.35;;;;;;;25.09;100.00;100453.81;5195807;28;20047;-74
2023/06/20 09:19:52;;;;;;;9.20;6.22;;;;;;;25.55;100.00;100451.03;5186281;28;20022;-73
2023/06/20 09:22:25;;;;;;;7.18;5.80;;;;;;;25.16;100.00;100452.22;5187770;28;20041;-75
2023/06/20 09:24:55;;;;;;;6.72;5.13;;;;;;;25.18;100.00;100468.13;5182507;28;20029;-74
2023/06/20 09:27:25;;;;;;;6.53;3.97;;;;;;;25.41;97.67;100458.72;5184892;28;20094;-75
2023/06/20 09:30:00;;;;;;;5.72;4.20;;;;;;;24.99;97.64;100462.88;5185214;28;20422;-74
2023/06/20 09:32:39;;;;;;;4.65;3.67;;;;;;;25.12;95.92;100461.53;5192909;28;20067;-74
2023/06/20 09:35:13;;;;;;;5.78;3.65;;;;;;;24.91;97.19;100457.44;5192438;28;20565;-74
2023/06/20 09:37:45;;;;;;;6.78;3.85;;;;;;;24.98;97.67;100456.69;5192909;28;20034;-74
2023/06/20 09:40:18;;;;;;;5.65;3.78;;;;;;;25.06;100.00;100469.31;5191885;28;20101;-75
2023/06/20 09:42:56;;;;;;;6.65;4.35;;;;;;;25.06;99.05;100463.97;5195546;28;20073;-74
2023/06/20 09:45:26;;;;;;;5.55;3.92;;;;;;;25.30;99.38;100457.09;5188770;28;20035;-74
2023/06/20 09:47:57;;;;;;;5.75;4.28;;;;;;;25.46;93.03;100456.44;5187188;28;20100;-73
2023/06/20 09:50:29;;;;;;;6.20;4.63;;;;;;;26.06;94.39;100444.97;5187152;28;20041;-72
2023/06/20 09:53:15;;;;;;;6.53;4.03;;;;;;;25.61;91.71;100457.59;5189250;28;20025;-72
2023/06/20 09:55:46;;;;;;;4.95;3.78;;;;;;;25.10;96.54;100460.84;5192223;28;20446;-73
2023/06/20 09:58:17;;;;;;;5.28;4.15;;;;;;;25.03;96.72;100465.13;5191232;28;20029;-72
2023/06/20 10:00:50;;;;;;;7.15;4.63;;;;;;;25.00;100.00;100461.91;5187093;28;20105;-70
2023/06/20 10:03:22;;;;;;;7.45;4.95;;;;;;;24.69;100.00;100463.16;5186232;28;20076;-71
2023/06/20 10:05:53;;;;;;;6.88;4.75;;;;;;;24.66;100.00;100470.63;5170747;28;20028;-70
2023/06/20 10:08:24;;;;;;;7.68;4.65;;;;;;;24.67;100.00;100466.97;5182862;28;20484;-72
2023/06/20 10:10:54;;;;;;;6.28;5.10;;;;;;;24.99;100.00;100470.91;5187486;28;20037;-72
2023/06/20 10:13:25;;;;;;;10.20;5.13;;;;;;;25.05;100.00;100473.00;5194076;28;20036;-70
2023/06/20 10:15:59;;;;;;;8.30;5.47;;;;;;;24.70;100.00;100467.50;5186583;28;20029;-72
2023/06/20 10:18:32;;;;;;;6.95;4.88;;;;;;;24.55;100.00;100463.63;5186212;28;20034;-72
2023/06/20 10:21:06;;;;;;;6.50;4.40;;;;;;;25.14;97.12;100456.88;5191563;28;20079;-72
2023/06/20 10:23:38;;;;;;;5.57;4.32;;;;;;;25.65;96.46;100461.66;5178581;28;20025;-72
2023/06/20 10:26:08;;;;;;;5.70;3.72;;;;;;;26.30;92.42;100454.03;5191529;28;20037;-72
2023/06/20 10:28:40;;;;;;;5.90;4.18;;;;;;;26.58;90.00;100455.59;5189491;28;20372;-72
2023/06/20 10:31:12;;;;;;;6.03;3.70;;;;;;;26.74;90.18;100445.78;5190494;28;20034;-72
2023/06/20 10:33:45;;;;;;;5.22;3.80;;;;;;;26.97;89.81;100433.47;5194871;28;20499;-71
2023/06/20 10:36:16;;;;;;;6.05;4.32;;;;;;;26.89;91.90;100432.59;5188183;28;20026;-71
2023/06/20 10:38:53;;;;;;;6.13;4.70;;;;;;;26.62;92.33;100437.31;5194505;28;20057;-72
2023/06/20 10:41:25;;;;;;;8.27;4.60;;;;;;;26.38;88.92;100427.25;5187745;28;20510;-73
2023/06/20 10:43:58;;;;;;;6.22;4.30;;;;;;;26.13;92.62;100424.56;5190858;28;20092;-72
2023/06/20 10:46:43;;;;;;;6.18;4.40;;;;;;;26.03;96.32;100418.50;5191653;28;20025;-72
2023/06/20 10:49:14;;;;;;;4.93;3.88;;;;;;;25.55;95.11;100412.69;5174557;28;21101;-72
2023/06/20 10:51:52;;;;;;;5.18;3.92;;;;;;;26.29;92.50;100404.09;5188405;28;20035;-72
2023/06/20 10:54:33;;;;;;;5.13;3.63;;;;;;;26.52;89.18;100405.25;5188697;28;20033;-72
2023/06/20 10:57:04;;;;;;;6.47;3.28;;;;;;;26.36;90.93;100407.81;5192450;28;20124;-72
2023/06/20 10:59:34;;;;;;;5.25;3.10;;;;;;;26.54;89.47;100397.91;5190149;28;20032;-72
2023/06/20 11:02:05;;;;;;;4.97;3.70;;;;;;;26.80;92.41;100396.00;5190429;28;20032;-72
2023/06/20 11:04:36;;;;;;;5.10;3.20;;;;;;;26.88;90.13;100398.72;5189196;28;20269;-72
2023/06/20 11:07:07;;;;;;;4.18;3.35;;;;;;;26.63;90.23;100398.78;5177727;28;20022;-71
2023/06/20 11:09:39;;;;;;;4.93;2.95;;;;;;;26.92;88.36;100400.91;5193756;28;20021;-72
2023/06/20 11:12:09;;;;;;;3.60;2.60;;;;;;;27.19;87.91;100403.41;5189598;28;21155;-72
2023/06/20 11:14:40;;;;;;;4.25;2.92;;;;;;;27.03;88.88;100400.63;5182979;28;20116;-71
2023/06/20 11:17:11;;;;;;;4.55;3.15;;;;;;;26.99;90.25;100403.78;5183641;28;20037;-70
2023/06/20 11:19:42;;;;;;;3.75;2.92;;;;;;;27.23;92.89;100390.47;5179144;28;20021;-72
2023/06/20 11:22:13;;;;;;;4.28;2.90;;;;;;;26.71;90.39;100396.97;5172266;28;20121;-72
2023/06/20 11:24:43;;;;;;;3.60;3.00;;;;;;;26.84;88.36;100387.50;5187334;28;20417;-72
2023/06/20 11:27:14;;;;;;;4.50;2.97;;;;;;;26.73;88.69;100385.09;5182388;28;20368;-71
2023/06/20 11:29:45;;;;;;;5.65;3.25;;;;;;;26.32;88.46;100395.75;5184300;28;20284;-72
2023/06/20 11:32:15;;;;;;;5.03;3.03;;;;;;;26.23;88.79;100390.50;5182500;28;22281;-72
2023/06/20 11:34:59;;;;;;;4.15;2.97;;;;;;;26.15;88.33;100393.94;5182623;28;20028;-73
2023/06/20 11:37:30;;;;;;;4.18;3.00;;;;;;;26.16;87.89;100384.91;5184835;28;20152;-72
2023/06/20 11:40:01;;;;;;;3.92;2.60;;;;;;;26.21;88.02;100379.09;5177881;28;20026;-72
2023/06/20 11:42:35;;;;;;;4.90;3.38;;;;;;;26.04;92.25;100377.31;5183184;28;20476;-75